sensor_id;sensor_type;location;lat;lon;timestamp;temperature;humidity
35647;DHT22;28680;45.642;13.756;2023-11-21T00:02:13;13.10;99.90
35647;DHT22;28680;45.642;13.756;2023-11-21T00:04:39;13.10;99.90
35647;DHT22;28680;45.642;13.756;2023-11-21T00:07:05;13.10;99.90
35647;DHT22;28680;45.642;13.756;2023-11-21T00:09:31;13.10;99.90
35647;DHT22;28680;45.642;13.756;2023-11-21T00:11:57;13.10;99.90
35647;DHT22;28680;45.642;13.756;2023-11-21T00:14:24;13.10;99.90
35647;DHT22;28680;45.642;13.756;2023-11-21T00:16:50;13.10;99.90
35647;DHT22;28680;45.642;13.756;2023-11-21T00:19:16;13.10;99.90
35647;DHT22;28680;45.642;13.756;2023-11-21T00:21:42;13.10;99.90
35647;DHT22;28680;45.642;13.756;2023-11-21T00:24:09;13.10;99.90
35647;DHT22;28680;45.642;13.756;2023-11-21T00:26:35;13.10;99.90
35647;DHT22;28680;45.642;13.756;2023-11-21T00:29:03;13.10;99.90
35647;DHT22;28680;45.642;13.756;2023-11-21T00:31:29;13.10;99.90
35647;DHT22;28680;45.642;13.756;2023-11-21T00:33:56;13.10;99.90
35647;DHT22;28680;45.642;13.756;2023-11-21T00:36:21;13.10;99.90
35647;DHT22;28680;45.642;13.756;2023-11-21T00:38:47;13.10;99.90
35647;DHT22;28680;45.642;13.756;2023-11-21T00:41:14;13.10;99.90
35647;DHT22;28680;45.642;13.756;2023-11-21T00:43:39;13.10;99.90
35647;DHT22;28680;45.642;13.756;2023-11-21T00:46:05;13.10;99.90
35647;DHT22;28680;45.642;13.756;2023-11-21T00:48:34;13.10;99.90
35647;DHT22;28680;45.642;13.756;2023-11-21T00:50:59;13.10;99.90
35647;DHT22;28680;45.642;13.756;2023-11-21T00:53:25;13.10;99.90
35647;DHT22;28680;45.642;13.756;2023-11-21T00:55:51;13.10;99.90
35647;DHT22;28680;45.642;13.756;2023-11-21T00:58:25;13.10;99.90
35647;DHT22;28680;45.642;13.756;2023-11-21T01:00:51;13.10;99.90
35647;DHT22;28680;45.642;13.756;2023-11-21T01:03:17;13.10;99.90
35647;DHT22;28680;45.642;13.756;2023-11-21T01:05:42;13.10;99.90
35647;DHT22;28680;45.642;13.756;2023-11-21T01:08:08;13.10;99.90
35647;DHT22;28680;45.642;13.756;2023-11-21T01:10:34;13.00;99.90
35647;DHT22;28680;45.642;13.756;2023-11-21T01:13:00;13.00;99.90
35647;DHT22;28680;45.642;13.756;2023-11-21T01:15:26;13.00;99.90
35647;DHT22;28680;45.642;13.756;2023-11-21T01:17:52;13.00;99.90
35647;DHT22;28680;45.642;13.756;2023-11-21T01:20:19;13.00;99.90
35647;DHT22;28680;45.642;13.756;2023-11-21T01:22:46;12.90;99.90
35647;DHT22;28680;45.642;13.756;2023-11-21T01:25:14;13.00;99.90
35647;DHT22;28680;45.642;13.756;2023-11-21T01:27:42;13.00;99.90
35647;DHT22;28680;45.642;13.756;2023-11-21T01:30:09;13.00;99.90
35647;DHT22;28680;45.642;13.756;2023-11-21T01:32:37;13.00;99.90
35647;DHT22;28680;45.642;13.756;2023-11-21T01:35:03;13.00;99.90
35647;DHT22;28680;45.642;13.756;2023-11-21T01:37:31;13.00;99.90
35647;DHT22;28680;45.642;13.756;2023-11-21T01:39:57;12.90;99.90
35647;DHT22;28680;45.642;13.756;2023-11-21T01:42:22;13.00;99.90
35647;DHT22;28680;45.642;13.756;2023-11-21T01:44:48;13.00;99.90
35647;DHT22;28680;45.642;13.756;2023-11-21T01:47:14;13.00;99.90
35647;DHT22;28680;45.642;13.756;2023-11-21T01:49:43;13.00;99.90
35647;DHT22;28680;45.642;13.756;2023-11-21T01:52:09;13.00;99.90
35647;DHT22;28680;45.642;13.756;2023-11-21T01:54:37;13.00;99.90
35647;DHT22;28680;45.642;13.756;2023-11-21T01:57:03;12.90;99.90
35647;DHT22;28680;45.642;13.756;2023-11-21T01:59:34;12.90;99.90
35647;DHT22;28680;45.642;13.756;2023-11-21T02:02:05;12.90;99.90
35647;DHT22;28680;45.642;13.756;2023-11-21T02:04:34;13.00;99.90
35647;DHT22;28680;45.642;13.756;2023-11-21T02:07:02;12.90;99.90
35647;DHT22;28680;45.642;13.756;2023-11-21T02:09:30;12.90;99.90
35647;DHT22;28680;45.642;13.756;2023-11-21T02:11:57;12.90;99.90
35647;DHT22;28680;45.642;13.756;2023-11-21T02:14:27;12.90;99.90
35647;DHT22;28680;45.642;13.756;2023-11-21T02:16:53;12.90;99.90
35647;DHT22;28680;45.642;13.756;2023-11-21T02:19:19;12.90;99.90
35647;DHT22;28680;45.642;13.756;2023-11-21T02:21:51;12.90;99.90
35647;DHT22;28680;45.642;13.756;2023-11-21T02:24:20;12.90;99.90
35647;DHT22;28680;45.642;13.756;2023-11-21T02:26:47;12.80;99.90
35647;DHT22;28680;45.642;13.756;2023-11-21T02:29:13;12.80;99.90
35647;DHT22;28680;45.642;13.756;2023-11-21T02:31:39;12.80;99.90
35647;DHT22;28680;45.642;13.756;2023-11-21T02:34:16;12.80;99.90
35647;DHT22;28680;45.642;13.756;2023-11-21T02:36:45;12.90;99.90
35647;DHT22;28680;45.642;13.756;2023-11-21T02:39:11;12.90;99.90
35647;DHT22;28680;45.642;13.756;2023-11-21T02:41:37;12.90;99.90
35647;DHT22;28680;45.642;13.756;2023-11-21T02:44:03;12.90;99.90
35647;DHT22;28680;45.642;13.756;2023-11-21T02:46:29;12.90;99.90
35647;DHT22;28680;45.642;13.756;2023-11-21T02:48:54;12.90;99.90
35647;DHT22;28680;45.642;13.756;2023-11-21T02:51:20;12.90;99.90
35647;DHT22;28680;45.642;13.756;2023-11-21T02:53:46;12.90;99.90
35647;DHT22;28680;45.642;13.756;2023-11-21T02:56:16;12.90;99.90
35647;DHT22;28680;45.642;13.756;2023-11-21T02:58:42;12.90;99.90
35647;DHT22;28680;45.642;13.756;2023-11-21T03:01:09;12.90;99.90
35647;DHT22;28680;45.642;13.756;2023-11-21T03:03:35;12.90;99.90
35647;DHT22;28680;45.642;13.756;2023-11-21T03:06:03;13.00;99.90
35647;DHT22;28680;45.642;13.756;2023-11-21T03:08:29;13.00;99.90
35647;DHT22;28680;45.642;13.756;2023-11-21T03:13:44;13.10;99.90
35647;DHT22;28680;45.642;13.756;2023-11-21T03:16:10;13.10;99.90
35647;DHT22;28680;45.642;13.756;2023-11-21T03:18:39;13.10;99.90
35647;DHT22;28680;45.642;13.756;2023-11-21T03:21:05;13.10;99.90
35647;DHT22;28680;45.642;13.756;2023-11-21T03:23:33;13.00;99.90
35647;DHT22;28680;45.642;13.756;2023-11-21T03:25:58;13.00;99.90
35647;DHT22;28680;45.642;13.756;2023-11-21T03:28:25;13.10;99.90
35647;DHT22;28680;45.642;13.756;2023-11-21T03:30:52;13.00;99.90
35647;DHT22;28680;45.642;13.756;2023-11-21T03:33:30;13.00;99.90
35647;DHT22;28680;45.642;13.756;2023-11-21T03:35:55;13.00;99.90
35647;DHT22;28680;45.642;13.756;2023-11-21T03:38:36;13.10;99.90
35647;DHT22;28680;45.642;13.756;2023-11-21T03:41:05;13.20;99.90
35647;DHT22;28680;45.642;13.756;2023-11-21T03:43:31;13.20;99.90
35647;DHT22;28680;45.642;13.756;2023-11-21T03:45:57;13.20;99.90
35647;DHT22;28680;45.642;13.756;2023-11-21T03:48:23;13.10;99.90
35647;DHT22;28680;45.642;13.756;2023-11-21T03:50:48;13.20;99.90
35647;DHT22;28680;45.642;13.756;2023-11-21T03:53:14;13.20;99.90
35647;DHT22;28680;45.642;13.756;2023-11-21T03:55:40;13.10;99.90
35647;DHT22;28680;45.642;13.756;2023-11-21T03:58:05;13.20;99.90
35647;DHT22;28680;45.642;13.756;2023-11-21T04:00:31;13.20;99.90
35647;DHT22;28680;45.642;13.756;2023-11-21T04:02:57;13.20;99.90
35647;DHT22;28680;45.642;13.756;2023-11-21T04:05:22;13.20;99.90
35647;DHT22;28680;45.642;13.756;2023-11-21T04:07:51;13.20;99.90
35647;DHT22;28680;45.642;13.756;2023-11-21T04:10:17;13.20;99.90
35647;DHT22;28680;45.642;13.756;2023-11-21T04:12:43;13.10;99.90
35647;DHT22;28680;45.642;13.756;2023-11-21T04:15:10;13.10;99.90
35647;DHT22;28680;45.642;13.756;2023-11-21T04:17:36;13.10;99.90
35647;DHT22;28680;45.642;13.756;2023-11-21T04:20:03;13.10;99.90
35647;DHT22;28680;45.642;13.756;2023-11-21T04:22:29;13.10;99.90
35647;DHT22;28680;45.642;13.756;2023-11-21T04:24:54;13.10;99.90
35647;DHT22;28680;45.642;13.756;2023-11-21T04:27:21;13.10;99.90
35647;DHT22;28680;45.642;13.756;2023-11-21T04:29:46;13.10;99.90
35647;DHT22;28680;45.642;13.756;2023-11-21T04:32:12;13.10;99.90
35647;DHT22;28680;45.642;13.756;2023-11-21T04:34:38;13.10;99.90
35647;DHT22;28680;45.642;13.756;2023-11-21T04:37:03;13.20;99.90
35647;DHT22;28680;45.642;13.756;2023-11-21T04:39:31;13.20;99.90
35647;DHT22;28680;45.642;13.756;2023-11-21T04:41:57;13.10;99.90
35647;DHT22;28680;45.642;13.756;2023-11-21T04:44:23;13.10;99.90
35647;DHT22;28680;45.642;13.756;2023-11-21T04:46:48;13.10;99.90
35647;DHT22;28680;45.642;13.756;2023-11-21T04:49:14;13.10;99.90
35647;DHT22;28680;45.642;13.756;2023-11-21T04:51:40;13.10;99.90
35647;DHT22;28680;45.642;13.756;2023-11-21T04:54:06;13.00;99.90
35647;DHT22;28680;45.642;13.756;2023-11-21T04:56:31;13.00;99.90
35647;DHT22;28680;45.642;13.756;2023-11-21T04:58:57;13.00;99.90
35647;DHT22;28680;45.642;13.756;2023-11-21T05:01:23;13.00;99.90
35647;DHT22;28680;45.642;13.756;2023-11-21T05:03:48;13.10;99.90
35647;DHT22;28680;45.642;13.756;2023-11-21T05:06:14;13.20;99.90
35647;DHT22;28680;45.642;13.756;2023-11-21T05:08:40;13.10;99.90
35647;DHT22;28680;45.642;13.756;2023-11-21T05:11:06;13.10;99.90
35647;DHT22;28680;45.642;13.756;2023-11-21T05:13:36;13.20;99.90
35647;DHT22;28680;45.642;13.756;2023-11-21T05:16:02;13.20;99.90
35647;DHT22;28680;45.642;13.756;2023-11-21T05:18:29;13.30;99.90
35647;DHT22;28680;45.642;13.756;2023-11-21T05:20:55;13.40;99.90
35647;DHT22;28680;45.642;13.756;2023-11-21T05:23:21;13.40;99.90
35647;DHT22;28680;45.642;13.756;2023-11-21T05:25:47;13.50;99.90
35647;DHT22;28680;45.642;13.756;2023-11-21T05:28:12;13.50;99.90
35647;DHT22;28680;45.642;13.756;2023-11-21T05:30:38;13.60;99.90
35647;DHT22;28680;45.642;13.756;2023-11-21T05:33:05;13.60;99.90
35647;DHT22;28680;45.642;13.756;2023-11-21T05:35:30;13.60;99.90
35647;DHT22;28680;45.642;13.756;2023-11-21T05:37:56;13.60;99.90
35647;DHT22;28680;45.642;13.756;2023-11-21T05:40:22;13.60;99.90
35647;DHT22;28680;45.642;13.756;2023-11-21T05:42:47;13.60;99.90
35647;DHT22;28680;45.642;13.756;2023-11-21T05:45:13;13.50;99.90
35647;DHT22;28680;45.642;13.756;2023-11-21T05:47:40;13.50;99.90
35647;DHT22;28680;45.642;13.756;2023-11-21T05:50:10;13.50;99.90
35647;DHT22;28680;45.642;13.756;2023-11-21T05:52:38;13.50;99.90
35647;DHT22;28680;45.642;13.756;2023-11-21T05:55:05;13.60;99.90
35647;DHT22;28680;45.642;13.756;2023-11-21T05:57:38;13.70;99.90
35647;DHT22;28680;45.642;13.756;2023-11-21T06:02:37;13.70;99.90
35647;DHT22;28680;45.642;13.756;2023-11-21T06:05:03;13.70;99.90
35647;DHT22;28680;45.642;13.756;2023-11-21T06:07:29;13.70;99.90
35647;DHT22;28680;45.642;13.756;2023-11-21T06:09:55;13.70;99.90
35647;DHT22;28680;45.642;13.756;2023-11-21T06:12:21;13.70;99.90
35647;DHT22;28680;45.642;13.756;2023-11-21T06:14:46;13.70;99.90
35647;DHT22;28680;45.642;13.756;2023-11-21T06:17:13;13.80;99.90
35647;DHT22;28680;45.642;13.756;2023-11-21T06:19:39;13.80;99.90
35647;DHT22;28680;45.642;13.756;2023-11-21T06:22:05;13.70;99.90
35647;DHT22;28680;45.642;13.756;2023-11-21T06:24:31;13.70;99.90
35647;DHT22;28680;45.642;13.756;2023-11-21T06:26:57;13.70;99.90
35647;DHT22;28680;45.642;13.756;2023-11-21T06:29:24;13.70;99.90
35647;DHT22;28680;45.642;13.756;2023-11-21T06:31:52;13.70;99.90
35647;DHT22;28680;45.642;13.756;2023-11-21T06:34:20;13.60;99.90
35647;DHT22;28680;45.642;13.756;2023-11-21T06:36:47;13.60;99.90
35647;DHT22;28680;45.642;13.756;2023-11-21T06:39:12;13.60;99.90
35647;DHT22;28680;45.642;13.756;2023-11-21T06:41:40;13.50;99.90
35647;DHT22;28680;45.642;13.756;2023-11-21T06:44:06;13.50;99.90
35647;DHT22;28680;45.642;13.756;2023-11-21T06:46:31;13.50;99.90
35647;DHT22;28680;45.642;13.756;2023-11-21T06:48:57;13.50;99.90
35647;DHT22;28680;45.642;13.756;2023-11-21T06:51:22;13.60;99.90
35647;DHT22;28680;45.642;13.756;2023-11-21T06:53:48;13.60;99.90
35647;DHT22;28680;45.642;13.756;2023-11-21T06:56:17;13.60;99.90
35647;DHT22;28680;45.642;13.756;2023-11-21T06:58:46;13.70;99.90
35647;DHT22;28680;45.642;13.756;2023-11-21T07:01:12;13.70;99.90
35647;DHT22;28680;45.642;13.756;2023-11-21T07:03:39;13.70;99.90
35647;DHT22;28680;45.642;13.756;2023-11-21T07:06:05;13.80;99.90
35647;DHT22;28680;45.642;13.756;2023-11-21T07:08:31;13.90;99.90
35647;DHT22;28680;45.642;13.756;2023-11-21T07:10:56;14.10;99.90
35647;DHT22;28680;45.642;13.756;2023-11-21T07:13:22;14.40;99.90
35647;DHT22;28680;45.642;13.756;2023-11-21T07:15:48;14.40;99.90
35647;DHT22;28680;45.642;13.756;2023-11-21T07:18:14;14.60;99.90
35647;DHT22;28680;45.642;13.756;2023-11-21T07:20:40;14.70;99.90
35647;DHT22;28680;45.642;13.756;2023-11-21T07:23:06;14.50;99.90
35647;DHT22;28680;45.642;13.756;2023-11-21T07:25:32;14.30;99.90
35647;DHT22;28680;45.642;13.756;2023-11-21T07:27:59;14.50;99.90
35647;DHT22;28680;45.642;13.756;2023-11-21T07:30:25;15.00;99.90
35647;DHT22;28680;45.642;13.756;2023-11-21T07:32:50;14.90;99.90
35647;DHT22;28680;45.642;13.756;2023-11-21T07:35:16;15.30;99.90
35647;DHT22;28680;45.642;13.756;2023-11-21T07:37:42;15.20;99.90
35647;DHT22;28680;45.642;13.756;2023-11-21T07:40:08;15.10;99.90
35647;DHT22;28680;45.642;13.756;2023-11-21T07:42:34;14.80;99.90
35647;DHT22;28680;45.642;13.756;2023-11-21T07:45:00;14.90;99.90
35647;DHT22;28680;45.642;13.756;2023-11-21T07:47:26;15.10;99.90
35647;DHT22;28680;45.642;13.756;2023-11-21T07:49:53;15.10;99.90
35647;DHT22;28680;45.642;13.756;2023-11-21T07:52:18;15.20;99.90
35647;DHT22;28680;45.642;13.756;2023-11-21T07:54:46;15.20;99.90
35647;DHT22;28680;45.642;13.756;2023-11-21T07:57:12;15.40;99.90
35647;DHT22;28680;45.642;13.756;2023-11-21T07:59:40;15.30;99.90
35647;DHT22;28680;45.642;13.756;2023-11-21T08:02:08;15.60;99.90
35647;DHT22;28680;45.642;13.756;2023-11-21T08:04:36;16.00;99.90
35647;DHT22;28680;45.642;13.756;2023-11-21T08:07:02;16.20;99.90
35647;DHT22;28680;45.642;13.756;2023-11-21T08:09:31;16.00;99.90
35647;DHT22;28680;45.642;13.756;2023-11-21T08:11:56;15.90;99.90
35647;DHT22;28680;45.642;13.756;2023-11-21T08:14:22;15.90;99.90
35647;DHT22;28680;45.642;13.756;2023-11-21T08:16:50;16.00;99.90
35647;DHT22;28680;45.642;13.756;2023-11-21T08:19:16;16.10;99.90
35647;DHT22;28680;45.642;13.756;2023-11-21T08:21:43;16.20;99.90
35647;DHT22;28680;45.642;13.756;2023-11-21T08:24:10;16.40;99.90
35647;DHT22;28680;45.642;13.756;2023-11-21T08:26:36;16.50;99.90
35647;DHT22;28680;45.642;13.756;2023-11-21T08:29:02;16.40;99.90
35647;DHT22;28680;45.642;13.756;2023-11-21T08:31:28;16.50;99.90
35647;DHT22;28680;45.642;13.756;2023-11-21T08:33:54;16.60;99.90
35647;DHT22;28680;45.642;13.756;2023-11-21T08:36:21;16.80;99.90
35647;DHT22;28680;45.642;13.756;2023-11-21T08:38:48;16.50;99.90
35647;DHT22;28680;45.642;13.756;2023-11-21T08:41:14;16.40;99.90
35647;DHT22;28680;45.642;13.756;2023-11-21T08:43:41;16.00;99.90
35647;DHT22;28680;45.642;13.756;2023-11-21T08:46:07;16.10;99.90
35647;DHT22;28680;45.642;13.756;2023-11-21T08:48:35;16.10;99.90
35647;DHT22;28680;45.642;13.756;2023-11-21T08:51:01;16.10;99.90
35647;DHT22;28680;45.642;13.756;2023-11-21T08:53:27;16.20;99.90
35647;DHT22;28680;45.642;13.756;2023-11-21T08:55:52;16.10;99.90
35647;DHT22;28680;45.642;13.756;2023-11-21T08:58:19;16.10;99.90
35647;DHT22;28680;45.642;13.756;2023-11-21T09:00:45;16.10;99.90
35647;DHT22;28680;45.642;13.756;2023-11-21T09:03:12;16.30;99.90
35647;DHT22;28680;45.642;13.756;2023-11-21T09:05:38;16.30;99.90
35647;DHT22;28680;45.642;13.756;2023-11-21T09:08:04;16.30;99.90
35647;DHT22;28680;45.642;13.756;2023-11-21T09:10:30;16.20;99.90
35647;DHT22;28680;45.642;13.756;2023-11-21T09:12:55;16.30;99.90
35647;DHT22;28680;45.642;13.756;2023-11-21T09:15:22;16.40;99.90
35647;DHT22;28680;45.642;13.756;2023-11-21T09:17:47;16.30;99.90
35647;DHT22;28680;45.642;13.756;2023-11-21T09:20:13;16.50;99.90
35647;DHT22;28680;45.642;13.756;2023-11-21T09:22:40;16.70;99.90
35647;DHT22;28680;45.642;13.756;2023-11-21T09:25:06;16.70;99.90
35647;DHT22;28680;45.642;13.756;2023-11-21T09:27:34;16.90;99.90
35647;DHT22;28680;45.642;13.756;2023-11-21T09:30:01;16.60;99.90
35647;DHT22;28680;45.642;13.756;2023-11-21T09:32:27;16.50;99.90
35647;DHT22;28680;45.642;13.756;2023-11-21T09:34:52;16.60;99.90
35647;DHT22;28680;45.642;13.756;2023-11-21T09:37:20;16.90;99.90
35647;DHT22;28680;45.642;13.756;2023-11-21T09:39:46;17.10;99.90
35647;DHT22;28680;45.642;13.756;2023-11-21T09:42:15;17.20;99.90
35647;DHT22;28680;45.642;13.756;2023-11-21T09:44:48;17.10;99.90
35647;DHT22;28680;45.642;13.756;2023-11-21T09:47:17;17.30;99.90
35647;DHT22;28680;45.642;13.756;2023-11-21T09:49:47;17.50;99.90
35647;DHT22;28680;45.642;13.756;2023-11-21T09:52:16;17.10;99.90
35647;DHT22;28680;45.642;13.756;2023-11-21T09:54:43;16.80;99.90
35647;DHT22;28680;45.642;13.756;2023-11-21T09:57:09;17.00;99.90
35647;DHT22;28680;45.642;13.756;2023-11-21T10:02:09;16.90;99.90
35647;DHT22;28680;45.642;13.756;2023-11-21T10:04:38;16.80;99.90
35647;DHT22;28680;45.642;13.756;2023-11-21T10:07:04;17.00;99.90
35647;DHT22;28680;45.642;13.756;2023-11-21T10:09:35;17.00;99.90
35647;DHT22;28680;45.642;13.756;2023-11-21T10:12:03;17.30;99.90
35647;DHT22;28680;45.642;13.756;2023-11-21T10:14:32;17.30;99.90
35647;DHT22;28680;45.642;13.756;2023-11-21T10:16:58;16.90;99.90
35647;DHT22;28680;45.642;13.756;2023-11-21T10:19:24;16.90;99.90
35647;DHT22;28680;45.642;13.756;2023-11-21T10:21:52;17.10;99.90
35647;DHT22;28680;45.642;13.756;2023-11-21T10:24:17;17.10;99.90
35647;DHT22;28680;45.642;13.756;2023-11-21T10:26:43;17.00;99.90
35647;DHT22;28680;45.642;13.756;2023-11-21T10:29:10;16.90;99.90
35647;DHT22;28680;45.642;13.756;2023-11-21T10:31:42;16.90;99.90
35647;DHT22;28680;45.642;13.756;2023-11-21T10:34:17;16.80;99.90
35647;DHT22;28680;45.642;13.756;2023-11-21T10:36:43;16.80;99.90
35647;DHT22;28680;45.642;13.756;2023-11-21T10:39:09;17.00;99.90
35647;DHT22;28680;45.642;13.756;2023-11-21T10:41:39;17.00;99.90
35647;DHT22;28680;45.642;13.756;2023-11-21T10:44:05;17.10;99.90
35647;DHT22;28680;45.642;13.756;2023-11-21T10:46:32;17.10;99.90
35647;DHT22;28680;45.642;13.756;2023-11-21T10:48:59;16.90;99.90
35647;DHT22;28680;45.642;13.756;2023-11-21T10:51:25;17.10;99.90
35647;DHT22;28680;45.642;13.756;2023-11-21T10:53:51;16.60;99.90
35647;DHT22;28680;45.642;13.756;2023-11-21T10:56:17;17.10;99.90
35647;DHT22;28680;45.642;13.756;2023-11-21T10:58:45;17.10;99.90
35647;DHT22;28680;45.642;13.756;2023-11-21T11:01:10;17.10;99.90
35647;DHT22;28680;45.642;13.756;2023-11-21T11:03:37;17.20;99.90
35647;DHT22;28680;45.642;13.756;2023-11-21T11:06:04;17.10;99.90
35647;DHT22;28680;45.642;13.756;2023-11-21T11:08:30;17.00;99.90
35647;DHT22;28680;45.642;13.756;2023-11-21T11:10:57;16.90;99.90
35647;DHT22;28680;45.642;13.756;2023-11-21T11:13:24;16.80;99.90
35647;DHT22;28680;45.642;13.756;2023-11-21T11:15:50;17.00;99.90
35647;DHT22;28680;45.642;13.756;2023-11-21T11:18:16;16.60;99.90
35647;DHT22;28680;45.642;13.756;2023-11-21T11:20:43;16.70;99.90
35647;DHT22;28680;45.642;13.756;2023-11-21T11:28:27;16.70;99.90
35647;DHT22;28680;45.642;13.756;2023-11-21T11:30:59;16.60;99.90
35647;DHT22;28680;45.642;13.756;2023-11-21T11:38:47;16.60;99.90
35647;DHT22;28680;45.642;13.756;2023-11-21T11:41:24;16.30;99.90
35647;DHT22;28680;45.642;13.756;2023-11-21T11:43:49;16.50;99.90
35647;DHT22;28680;45.642;13.756;2023-11-21T11:52:46;15.70;99.90
35647;DHT22;28680;45.642;13.756;2023-11-21T11:55:16;15.70;99.90
35647;DHT22;28680;45.642;13.756;2023-11-21T11:57:48;15.60;99.90
35647;DHT22;28680;45.642;13.756;2023-11-21T12:00:15;15.80;99.90
35647;DHT22;28680;45.642;13.756;2023-11-21T12:02:44;15.90;99.90
35647;DHT22;28680;45.642;13.756;2023-11-21T12:05:17;15.40;99.90
35647;DHT22;28680;45.642;13.756;2023-11-21T12:07:50;15.50;99.90
35647;DHT22;28680;45.642;13.756;2023-11-21T12:10:20;15.50;99.90
35647;DHT22;28680;45.642;13.756;2023-11-21T12:12:49;15.60;99.90
35647;DHT22;28680;45.642;13.756;2023-11-21T12:15:15;15.50;99.90
35647;DHT22;28680;45.642;13.756;2023-11-21T12:17:42;15.70;99.90
35647;DHT22;28680;45.642;13.756;2023-11-21T12:20:09;15.50;99.90
35647;DHT22;28680;45.642;13.756;2023-11-21T12:22:46;15.40;99.90
35647;DHT22;28680;45.642;13.756;2023-11-21T12:27:42;15.10;99.90
35647;DHT22;28680;45.642;13.756;2023-11-21T12:30:09;15.10;99.90
35647;DHT22;28680;45.642;13.756;2023-11-21T12:36:09;15.20;99.90
35647;DHT22;28680;45.642;13.756;2023-11-21T12:38:36;15.60;99.90
35647;DHT22;28680;45.642;13.756;2023-11-21T12:41:02;15.50;99.90
35647;DHT22;28680;45.642;13.756;2023-11-21T12:43:28;15.10;99.90
35647;DHT22;28680;45.642;13.756;2023-11-21T12:46:06;15.20;99.90
35647;DHT22;28680;45.642;13.756;2023-11-21T12:48:32;15.50;99.90
35647;DHT22;28680;45.642;13.756;2023-11-21T12:50:58;15.20;99.90
35647;DHT22;28680;45.642;13.756;2023-11-21T12:53:25;15.30;99.90
35647;DHT22;28680;45.642;13.756;2023-11-21T12:55:51;15.10;99.90
35647;DHT22;28680;45.642;13.756;2023-11-21T12:58:17;14.70;99.90
35647;DHT22;28680;45.642;13.756;2023-11-21T13:00:46;14.60;99.90
35647;DHT22;28680;45.642;13.756;2023-11-21T13:03:13;14.60;99.90
35647;DHT22;28680;45.642;13.756;2023-11-21T13:05:43;14.40;99.90
35647;DHT22;28680;45.642;13.756;2023-11-21T13:08:10;14.40;99.90
35647;DHT22;28680;45.642;13.756;2023-11-21T13:10:44;14.60;99.90
35647;DHT22;28680;45.642;13.756;2023-11-21T13:13:13;14.60;99.90
35647;DHT22;28680;45.642;13.756;2023-11-21T13:15:48;14.40;99.90
35647;DHT22;28680;45.642;13.756;2023-11-21T13:18:14;14.30;99.90
35647;DHT22;28680;45.642;13.756;2023-11-21T13:20:40;14.60;99.90
35647;DHT22;28680;45.642;13.756;2023-11-21T13:23:09;14.50;99.90
35647;DHT22;28680;45.642;13.756;2023-11-21T13:25:37;14.50;99.90
35647;DHT22;28680;45.642;13.756;2023-11-21T13:28:04;14.50;99.90
35647;DHT22;28680;45.642;13.756;2023-11-21T13:30:30;14.40;99.90
35647;DHT22;28680;45.642;13.756;2023-11-21T13:32:59;14.20;99.90
35647;DHT22;28680;45.642;13.756;2023-11-21T13:35:30;14.20;99.90
35647;DHT22;28680;45.642;13.756;2023-11-21T13:38:03;13.80;99.90
35647;DHT22;28680;45.642;13.756;2023-11-21T13:40:29;14.20;99.90
35647;DHT22;28680;45.642;13.756;2023-11-21T13:42:55;14.20;99.90
35647;DHT22;28680;45.642;13.756;2023-11-21T13:45:25;14.10;99.90
35647;DHT22;28680;45.642;13.756;2023-11-21T13:47:51;13.90;99.90
35647;DHT22;28680;45.642;13.756;2023-11-21T13:50:18;13.80;99.90
35647;DHT22;28680;45.642;13.756;2023-11-21T13:52:48;13.90;99.90
35647;DHT22;28680;45.642;13.756;2023-11-21T13:55:14;13.90;99.90
35647;DHT22;28680;45.642;13.756;2023-11-21T13:57:42;13.90;99.90
35647;DHT22;28680;45.642;13.756;2023-11-21T14:00:15;13.90;99.90
35647;DHT22;28680;45.642;13.756;2023-11-21T14:03:01;13.80;99.90
35647;DHT22;28680;45.642;13.756;2023-11-21T14:05:28;13.70;99.90
35647;DHT22;28680;45.642;13.756;2023-11-21T14:07:55;13.50;99.90
35647;DHT22;28680;45.642;13.756;2023-11-21T14:10:21;13.60;99.90
35647;DHT22;28680;45.642;13.756;2023-11-21T14:12:50;13.60;99.90
35647;DHT22;28680;45.642;13.756;2023-11-21T14:15:15;13.70;99.90
35647;DHT22;28680;45.642;13.756;2023-11-21T14:17:44;13.70;99.90
35647;DHT22;28680;45.642;13.756;2023-11-21T14:20:10;13.70;99.90
35647;DHT22;28680;45.642;13.756;2023-11-21T14:22:41;13.90;99.90
35647;DHT22;28680;45.642;13.756;2023-11-21T14:25:07;13.80;99.90
35647;DHT22;28680;45.642;13.756;2023-11-21T14:27:33;13.80;99.90
35647;DHT22;28680;45.642;13.756;2023-11-21T14:29:59;13.70;99.90
35647;DHT22;28680;45.642;13.756;2023-11-21T14:32:24;13.70;99.90
35647;DHT22;28680;45.642;13.756;2023-11-21T14:34:51;13.70;99.90
35647;DHT22;28680;45.642;13.756;2023-11-21T14:37:17;13.80;99.90
35647;DHT22;28680;45.642;13.756;2023-11-21T14:39:43;13.70;99.90
35647;DHT22;28680;45.642;13.756;2023-11-21T14:42:13;13.70;99.90
35647;DHT22;28680;45.642;13.756;2023-11-21T14:44:40;13.60;99.90
35647;DHT22;28680;45.642;13.756;2023-11-21T14:47:07;13.60;99.90
35647;DHT22;28680;45.642;13.756;2023-11-21T14:49:41;13.60;99.90
35647;DHT22;28680;45.642;13.756;2023-11-21T14:52:21;13.70;99.90
35647;DHT22;28680;45.642;13.756;2023-11-21T14:55:03;13.60;99.90
35647;DHT22;28680;45.642;13.756;2023-11-21T14:57:49;13.60;99.90
35647;DHT22;28680;45.642;13.756;2023-11-21T15:00:18;13.50;99.90
35647;DHT22;28680;45.642;13.756;2023-11-21T15:02:59;13.50;99.90
35647;DHT22;28680;45.642;13.756;2023-11-21T15:05:25;13.60;99.90
35647;DHT22;28680;45.642;13.756;2023-11-21T15:07:53;13.60;99.90
35647;DHT22;28680;45.642;13.756;2023-11-21T15:10:22;13.60;99.90
35647;DHT22;28680;45.642;13.756;2023-11-21T15:12:54;13.50;99.90
35647;DHT22;28680;45.642;13.756;2023-11-21T15:15:20;13.50;99.90
35647;DHT22;28680;45.642;13.756;2023-11-21T15:17:46;13.40;99.90
35647;DHT22;28680;45.642;13.756;2023-11-21T15:20:13;13.40;99.90
35647;DHT22;28680;45.642;13.756;2023-11-21T15:22:44;13.50;99.90
35647;DHT22;28680;45.642;13.756;2023-11-21T15:25:10;13.50;99.90
35647;DHT22;28680;45.642;13.756;2023-11-21T15:27:36;13.40;99.90
35647;DHT22;28680;45.642;13.756;2023-11-21T15:30:02;13.50;99.90
35647;DHT22;28680;45.642;13.756;2023-11-21T15:32:28;13.50;99.90
35647;DHT22;28680;45.642;13.756;2023-11-21T15:34:54;13.40;99.90
35647;DHT22;28680;45.642;13.756;2023-11-21T15:37:20;13.40;99.90
35647;DHT22;28680;45.642;13.756;2023-11-21T15:39:45;13.40;99.90
35647;DHT22;28680;45.642;13.756;2023-11-21T15:45:41;13.50;99.90
35647;DHT22;28680;45.642;13.756;2023-11-21T15:48:06;13.70;99.90
35647;DHT22;28680;45.642;13.756;2023-11-21T15:50:32;13.90;99.90